createdAt,value
2018-08-10T00:01:32.435Z,1.80
2018-08-10T00:04:00.615Z,1.37
2018-08-10T00:06:28.708Z,1.33
2018-08-10T00:08:56.914Z,1.27
2018-08-10T00:11:24.955Z,1.30
2018-08-10T00:13:53.091Z,1.47
2018-08-10T00:16:21.175Z,1.53
2018-08-10T00:18:49.259Z,1.30
2018-08-10T00:21:17.445Z,1.60
2018-08-10T00:23:45.559Z,1.20
2018-08-10T00:26:13.643Z,1.30
2018-08-10T00:28:41.754Z,1.23
2018-08-10T00:31:09.827Z,1.40
2018-08-10T00:33:37.945Z,1.20
2018-08-10T00:36:06.028Z,1.30
2018-08-10T00:38:34.136Z,1.10
2018-08-10T00:41:02.215Z,1.10
2018-08-10T00:43:37.920Z,1.47
2018-08-10T00:46:06.071Z,1.00
2018-08-10T00:48:34.165Z,1.60
2018-08-10T00:51:02.239Z,1.37
2018-08-10T00:53:30.333Z,1.30
2018-08-10T00:55:58.429Z,1.20
2018-08-10T00:58:26.508Z,1.20
2018-08-10T01:00:54.625Z,1.57
2018-08-10T01:03:22.727Z,1.20
2018-08-10T01:05:50.828Z,1.00
2018-08-10T01:08:18.923Z,1.10
2018-08-10T01:10:47.023Z,1.00
2018-08-10T01:13:15.150Z,1.27
2018-08-10T01:15:43.355Z,1.00
2018-08-10T01:18:11.428Z,1.27
2018-08-10T01:20:39.511Z,1.37
2018-08-10T01:23:08.183Z,1.13
2018-08-10T01:25:36.290Z,1.20
2018-08-10T01:28:05.162Z,1.37
2018-08-10T01:30:34.355Z,1.17
2018-08-10T01:33:02.639Z,1.20
2018-08-10T01:35:31.066Z,1.30
2018-08-10T01:38:00.252Z,1.30
2018-08-10T01:40:28.451Z,1.20
2018-08-10T01:42:56.576Z,1.10
2018-08-10T01:45:24.702Z,1.40
2018-08-10T01:47:52.968Z,1.13
2018-08-10T01:50:21.095Z,1.17
2018-08-10T01:52:49.199Z,1.13
2018-08-10T01:55:17.307Z,0.97
2018-08-10T01:57:45.438Z,1.20
2018-08-10T02:00:13.599Z,1.50
2018-08-10T02:02:41.699Z,1.13
2018-08-10T02:05:11.624Z,1.10
2018-08-10T02:07:40.279Z,1.30
2018-08-10T02:10:11.359Z,1.20
2018-08-10T02:12:40.076Z,1.17
2018-08-10T02:15:13.851Z,1.03
2018-08-10T02:17:41.996Z,1.10
2018-08-10T02:20:12.247Z,1.30
2018-08-10T02:22:40.406Z,1.10
2018-08-10T02:25:10.057Z,1.00
2018-08-10T02:27:38.305Z,1.10
2018-08-10T02:30:07.834Z,1.00
2018-08-10T02:32:35.976Z,1.00
2018-08-10T02:35:04.224Z,1.00
2018-08-10T02:37:32.323Z,1.03
2018-08-10T02:40:00.492Z,0.93
2018-08-10T02:42:28.621Z,1.20
2018-08-10T02:44:56.851Z,1.10
2018-08-10T02:47:25.431Z,1.00
2018-08-10T02:49:55.051Z,1.00
2018-08-10T02:52:23.429Z,1.53
2018-08-10T02:54:51.806Z,0.90
2018-08-10T02:57:20.020Z,1.00
2018-08-10T02:59:48.148Z,1.10
2018-08-10T03:02:16.833Z,0.80
2018-08-10T03:04:45.044Z,1.20
2018-08-10T03:07:13.388Z,1.10
2018-08-10T03:09:41.821Z,1.10
2018-08-10T03:12:11.039Z,1.10
2018-08-10T03:14:39.231Z,1.00
2018-08-10T03:17:07.532Z,1.23
2018-08-10T03:19:35.680Z,0.90
2018-08-10T03:22:03.821Z,1.00
2018-08-10T03:24:31.917Z,1.30
2018-08-10T03:27:00.014Z,0.80
2018-08-10T03:29:28.148Z,0.97
2018-08-10T03:31:56.251Z,1.20
2018-08-10T03:34:24.379Z,1.10
2018-08-10T03:36:52.533Z,1.30
2018-08-10T03:39:20.650Z,0.90
2018-08-10T03:41:48.792Z,0.90
2018-08-10T03:44:16.912Z,1.00
2018-08-10T03:46:45.095Z,1.00
2018-08-10T03:49:13.191Z,1.10
2018-08-10T03:51:41.275Z,1.07
2018-08-10T03:54:09.364Z,1.30
2018-08-10T03:56:37.483Z,1.00
2018-08-10T03:59:05.620Z,1.10
2018-08-10T04:01:33.737Z,0.80
2018-08-10T04:04:01.857Z,1.07
2018-08-10T04:06:29.972Z,0.90
2018-08-10T04:08:58.096Z,0.97
2018-08-10T04:11:26.275Z,0.80
2018-08-10T04:13:54.372Z,0.97
2018-08-10T04:16:22.484Z,0.90
2018-08-10T04:18:50.598Z,0.90
2018-08-10T04:21:18.729Z,1.20
2018-08-10T04:23:46.855Z,0.97
2018-08-10T04:26:14.996Z,1.10
2018-08-10T04:28:43.420Z,1.03
2018-08-10T04:31:11.544Z,1.00
2018-08-10T04:33:39.668Z,1.10
2018-08-10T04:36:07.814Z,0.90
2018-08-10T04:38:35.981Z,1.00
2018-08-10T04:41:04.131Z,0.90
2018-08-10T04:43:32.215Z,0.97
2018-08-10T04:46:00.343Z,0.97
2018-08-10T04:48:28.483Z,0.90
2018-08-10T04:50:56.606Z,0.83
2018-08-10T04:53:24.758Z,1.13
2018-08-10T04:55:52.875Z,0.90
2018-08-10T04:58:20.984Z,0.90
2018-08-10T05:00:49.095Z,0.87
2018-08-10T05:03:17.236Z,1.10
2018-08-10T05:05:45.380Z,1.00
2018-08-10T05:08:13.545Z,0.97
2018-08-10T05:10:41.676Z,1.17
2018-08-10T05:13:09.795Z,0.90
2018-08-10T05:15:37.972Z,1.00
2018-08-10T05:18:06.073Z,0.97
2018-08-10T05:20:34.219Z,0.90
2018-08-10T05:23:02.342Z,1.23
2018-08-10T05:25:30.471Z,0.90
2018-08-10T05:27:58.598Z,0.90
2018-08-10T05:30:26.698Z,0.90
2018-08-10T05:32:54.803Z,0.93
2018-08-10T05:35:23.081Z,0.90
2018-08-10T05:37:51.241Z,1.00
2018-08-10T05:40:19.364Z,1.00
2018-08-10T05:42:47.487Z,0.90
2018-08-10T05:45:42.663Z,1.10
2018-08-10T05:48:10.824Z,1.10
2018-08-10T05:50:38.887Z,1.10
2018-08-10T05:53:06.991Z,0.90
2018-08-10T05:55:35.084Z,1.00
2018-08-10T05:58:03.204Z,1.10
2018-08-10T06:00:31.310Z,1.20
2018-08-10T06:02:59.479Z,0.70
2018-08-10T06:05:27.644Z,1.10
2018-08-10T06:07:55.771Z,1.07
2018-08-10T06:10:23.879Z,0.90
2018-08-10T06:12:52.041Z,1.00
2018-08-10T06:15:20.189Z,0.90
2018-08-10T06:17:48.379Z,0.87
2018-08-10T06:20:16.485Z,1.20
2018-08-10T06:22:44.800Z,1.00
2018-08-10T06:25:12.888Z,0.90
2018-08-10T06:27:41.050Z,0.80
2018-08-10T06:30:10.595Z,0.97
2018-08-10T06:32:38.919Z,1.23
2018-08-10T06:35:07.231Z,0.90
2018-08-10T06:37:35.533Z,0.83
2018-08-10T06:40:04.204Z,1.40
2018-08-10T06:42:32.336Z,0.90
2018-08-10T06:45:00.566Z,1.00
2018-08-10T06:47:28.552Z,0.87
2018-08-10T06:49:56.696Z,0.80
2018-08-10T06:52:24.848Z,0.87
2018-08-10T06:54:53.099Z,0.73
2018-08-10T06:57:21.249Z,0.80
2018-08-10T06:59:49.371Z,1.10
2018-08-10T07:02:17.536Z,0.63
2018-08-10T07:04:45.663Z,0.90
2018-08-10T07:07:13.849Z,0.80
2018-08-10T07:09:41.980Z,0.97
2018-08-10T07:12:10.100Z,0.90
2018-08-10T07:14:38.220Z,0.90
2018-08-10T07:17:06.340Z,0.90
2018-08-10T07:19:34.491Z,0.97
2018-08-10T07:22:02.639Z,1.00
2018-08-10T07:24:30.752Z,1.10
2018-08-10T07:26:58.920Z,0.90
2018-08-10T07:29:27.011Z,1.00
2018-08-10T07:31:55.137Z,0.90
2018-08-10T07:34:23.255Z,0.80
2018-08-10T07:36:51.847Z,0.80
2018-08-10T07:39:19.948Z,1.03
2018-08-10T07:41:48.040Z,0.80
2018-08-10T07:44:16.163Z,0.80
2018-08-10T07:46:44.294Z,0.83
2018-08-10T07:49:12.407Z,0.83
2018-08-10T07:51:40.545Z,0.90
2018-08-10T07:54:08.648Z,1.07
2018-08-10T07:56:36.771Z,0.90
2018-08-10T07:59:04.952Z,1.10
2018-08-10T08:01:33.004Z,0.80
2018-08-10T08:04:01.131Z,1.07
2018-08-10T08:06:29.246Z,1.13
2018-08-10T08:08:57.391Z,0.80
2018-08-10T08:11:25.573Z,0.90
2018-08-10T08:13:53.700Z,1.00
2018-08-10T08:16:21.812Z,1.07
2018-08-10T08:18:49.933Z,1.00
2018-08-10T08:21:18.063Z,0.90
2018-08-10T08:23:46.248Z,1.20
2018-08-10T08:26:14.373Z,0.80
2018-08-10T08:28:42.491Z,0.80
2018-08-10T08:31:10.623Z,1.10
2018-08-10T08:33:50.085Z,0.93
2018-08-10T08:36:18.191Z,0.87
2018-08-10T08:39:05.468Z,0.87
2018-08-10T08:41:33.590Z,0.83
2018-08-10T08:44:38.305Z,0.90
2018-08-10T08:47:06.942Z,1.00
2018-08-10T08:49:36.111Z,0.90
2018-08-10T08:52:04.634Z,1.03
2018-08-10T08:55:12.849Z,0.80
2018-08-10T08:57:40.981Z,0.90
2018-08-10T09:00:12.959Z,0.90
2018-08-10T09:02:41.063Z,1.20
2018-08-10T09:05:09.941Z,0.70
2018-08-10T09:07:38.440Z,0.77
2018-08-10T09:10:11.371Z,0.90
2018-08-10T09:12:39.487Z,0.90
2018-08-10T09:15:09.551Z,1.00
2018-08-10T09:17:37.688Z,0.80
2018-08-10T09:20:06.761Z,0.80
2018-08-10T09:22:34.908Z,0.80
2018-08-10T09:25:03.032Z,1.20
2018-08-10T09:27:31.147Z,1.10
2018-08-10T09:29:59.247Z,0.83
2018-08-10T09:32:27.392Z,1.00
2018-08-10T09:34:55.519Z,0.90
2018-08-10T09:37:23.638Z,1.23
2018-08-10T09:39:51.739Z,0.90
2018-08-10T09:42:19.868Z,1.10
2018-08-10T09:44:47.984Z,0.97
2018-08-10T09:47:16.088Z,0.90
2018-08-10T09:49:45.665Z,1.03
2018-08-10T09:52:13.766Z,0.93
2018-08-10T09:55:19.467Z,1.00
2018-08-10T09:57:47.960Z,1.20
2018-08-10T10:00:21.541Z,1.00
2018-08-10T10:03:25.792Z,0.97
2018-08-10T10:05:55.461Z,0.93
2018-08-10T10:08:24.100Z,0.90
2018-08-10T10:10:52.235Z,1.00
2018-08-10T10:13:20.389Z,0.90
2018-08-10T10:15:48.488Z,1.00
2018-08-10T10:18:17.389Z,0.90
2018-08-10T10:20:46.243Z,1.07
2018-08-10T10:23:14.375Z,1.10
2018-08-10T10:25:42.479Z,0.90
2018-08-10T10:28:10.606Z,0.80
2018-08-10T10:30:38.703Z,1.10
2018-08-10T10:33:06.856Z,0.90
2018-08-10T10:35:34.964Z,0.90
2018-08-10T10:38:03.079Z,1.00
2018-08-10T10:40:31.183Z,0.83
2018-08-10T10:42:59.319Z,0.93
2018-08-10T10:45:27.484Z,0.90
2018-08-10T10:47:55.616Z,1.10
2018-08-10T10:50:23.731Z,0.87
2018-08-10T10:52:51.902Z,1.30
2018-08-10T10:55:20.073Z,0.70
2018-08-10T10:57:48.183Z,0.80
2018-08-10T11:00:17.730Z,0.90
2018-08-10T11:02:46.328Z,0.80
2018-08-10T11:05:14.485Z,0.90
2018-08-10T11:07:42.943Z,1.20
2018-08-10T11:10:12.313Z,1.00
2018-08-10T11:12:40.410Z,0.87
2018-08-10T11:15:09.729Z,0.90
2018-08-10T11:17:37.900Z,0.90
2018-08-10T11:20:06.744Z,0.93
2018-08-10T11:22:34.840Z,1.00
2018-08-10T11:25:02.985Z,0.87
2018-08-10T11:27:31.007Z,0.90
2018-08-10T11:29:59.111Z,0.93
2018-08-10T11:32:27.208Z,0.80
2018-08-10T11:34:55.328Z,1.00
2018-08-10T11:37:23.480Z,0.83
2018-08-10T11:39:51.575Z,0.90
2018-08-10T11:42:26.716Z,1.00
2018-08-10T11:44:54.853Z,0.80
2018-08-10T11:47:22.936Z,0.80
2018-08-10T11:49:51.055Z,1.00
2018-08-10T11:52:19.157Z,0.80
2018-08-10T11:54:47.269Z,0.73
2018-08-10T11:57:15.371Z,0.90
2018-08-10T11:59:43.481Z,0.90
2018-08-10T12:02:11.623Z,0.90
2018-08-10T12:04:39.763Z,0.70
2018-08-10T12:07:07.874Z,1.20
2018-08-10T12:09:35.975Z,0.90
2018-08-10T12:12:04.098Z,0.90
2018-08-10T12:14:32.202Z,0.80
2018-08-10T12:17:00.315Z,0.80
2018-08-10T12:19:28.450Z,0.90
2018-08-10T12:21:56.563Z,0.60
2018-08-10T12:24:24.672Z,0.80
2018-08-10T12:26:52.834Z,1.00
2018-08-10T12:29:20.925Z,0.83
2018-08-10T12:31:49.015Z,0.60
2018-08-10T12:34:17.131Z,0.90
2018-08-10T12:36:45.247Z,0.77
2018-08-10T12:39:14.493Z,0.87
2018-08-10T12:41:42.691Z,1.07
2018-08-10T12:44:10.917Z,0.80
2018-08-10T12:46:39.049Z,0.97
2018-08-10T12:49:07.177Z,0.87
2018-08-10T12:51:35.304Z,0.83
2018-08-10T12:54:03.448Z,0.80
2018-08-10T12:56:31.761Z,0.70
2018-08-10T12:58:59.907Z,0.90
2018-08-10T13:01:28.051Z,1.20
2018-08-10T13:03:56.183Z,0.70
2018-08-10T13:06:24.341Z,0.70
2018-08-10T13:08:52.444Z,1.03
2018-08-10T13:11:20.615Z,1.07
2018-08-10T13:13:48.752Z,0.80
2018-08-10T13:16:16.984Z,1.00
2018-08-10T13:18:45.091Z,0.93
2018-08-10T13:21:13.211Z,0.93
2018-08-10T13:23:41.347Z,0.90
2018-08-10T13:26:09.439Z,1.10
2018-08-10T13:28:37.549Z,1.00
2018-08-10T13:31:05.682Z,1.20
2018-08-10T13:33:33.798Z,1.37
2018-08-10T13:36:01.938Z,1.10
2018-08-10T13:38:30.045Z,1.40
2018-08-10T13:40:58.262Z,1.13
2018-08-10T13:43:26.366Z,1.13
2018-08-10T13:45:54.512Z,1.00
2018-08-10T13:48:22.643Z,1.07
2018-08-10T13:50:50.803Z,1.30
2018-08-10T13:53:19.442Z,1.10
2018-08-10T13:55:47.503Z,1.20
2018-08-10T13:58:15.635Z,1.27
2018-08-10T14:00:43.772Z,1.30
2018-08-10T14:03:11.898Z,1.40
2018-08-10T14:05:40.107Z,1.30
2018-08-10T14:08:08.431Z,1.10
2018-08-10T14:10:36.558Z,1.20
2018-08-10T14:13:04.668Z,1.03
2018-08-10T14:15:32.820Z,1.10
2018-08-10T14:18:00.949Z,1.30
2018-08-10T14:20:29.089Z,1.30
2018-08-10T14:22:57.211Z,1.33
2018-08-10T14:25:25.448Z,1.10
2018-08-10T14:27:53.615Z,1.20
2018-08-10T14:30:21.772Z,1.20
2018-08-10T14:32:49.914Z,1.23
2018-08-10T14:35:18.016Z,0.90
2018-08-10T14:37:46.147Z,1.00
2018-08-10T14:40:14.335Z,1.30
2018-08-10T14:42:42.551Z,1.20
2018-08-10T14:45:13.711Z,1.20
2018-08-10T14:47:41.847Z,1.20
2018-08-10T14:50:11.755Z,1.30
2018-08-10T14:52:39.979Z,1.00
2018-08-10T14:55:09.665Z,1.23
2018-08-10T14:57:37.816Z,1.20
2018-08-10T15:00:10.738Z,1.57
2018-08-10T15:02:38.859Z,1.40
2018-08-10T15:05:07.441Z,1.33
2018-08-10T15:07:35.559Z,1.50
2018-08-10T15:10:04.428Z,1.40
2018-08-10T15:12:32.691Z,1.37
2018-08-10T15:15:00.652Z,1.40
2018-08-10T15:17:28.772Z,1.40
2018-08-10T15:19:56.899Z,1.30
2018-08-10T15:22:25.120Z,1.50
2018-08-10T15:24:53.290Z,1.40
2018-08-10T15:27:21.379Z,1.20
2018-08-10T15:29:49.528Z,1.17
2018-08-10T15:32:17.787Z,1.40
2018-08-10T15:34:45.987Z,1.27
2018-08-10T15:37:14.079Z,1.00
2018-08-10T15:39:42.224Z,1.30
2018-08-10T15:42:10.337Z,1.20
2018-08-10T15:44:38.576Z,1.40
2018-08-10T15:47:06.719Z,1.90
2018-08-10T15:49:34.879Z,1.40
2018-08-10T15:52:02.971Z,1.17
2018-08-10T15:54:31.150Z,1.50
2018-08-10T15:56:59.255Z,1.30
2018-08-10T15:59:27.383Z,1.30
2018-08-10T16:01:55.529Z,1.17
2018-08-10T16:04:23.623Z,1.10
2018-08-10T16:06:51.763Z,1.20
2018-08-10T16:09:19.920Z,1.17
2018-08-10T16:11:48.164Z,1.10
2018-08-10T16:14:16.307Z,1.20
2018-08-10T16:16:44.515Z,1.63
2018-08-10T16:19:12.843Z,1.00
2018-08-10T16:21:40.960Z,1.10
2018-08-10T16:24:09.090Z,1.10
2018-08-10T16:26:37.319Z,1.27
2018-08-10T16:29:05.490Z,1.60
2018-08-10T16:31:33.650Z,1.40
2018-08-10T16:34:01.818Z,1.70
2018-08-10T16:36:30.143Z,1.30
2018-08-10T16:38:58.314Z,1.80
2018-08-10T16:41:26.416Z,1.67
2018-08-10T16:43:54.583Z,1.80
2018-08-10T16:46:22.696Z,2.20
2018-08-10T16:48:50.928Z,5.73
2018-08-10T16:51:19.097Z,9.13
2018-08-10T16:53:47.253Z,2.50
2018-08-10T16:56:15.335Z,2.87
2018-08-10T16:58:43.474Z,2.63
2018-08-10T17:01:11.585Z,3.93
2018-08-10T17:03:39.711Z,4.30
2018-08-10T17:06:07.844Z,2.90
2018-08-10T17:08:35.930Z,2.70
2018-08-10T17:11:04.045Z,2.47
2018-08-10T17:13:32.139Z,3.47
2018-08-10T17:16:00.289Z,2.70
2018-08-10T17:18:28.359Z,2.10
2018-08-10T17:20:56.475Z,2.43
2018-08-10T17:23:24.663Z,2.47
2018-08-10T17:25:52.768Z,2.60
2018-08-10T17:28:20.879Z,2.33
2018-08-10T17:30:48.981Z,2.53
2018-08-10T17:33:17.144Z,2.50
2018-08-10T17:35:45.202Z,2.40
2018-08-10T17:38:13.306Z,2.37
2018-08-10T17:40:41.427Z,2.10
2018-08-10T17:43:09.534Z,2.47
2018-08-10T17:45:37.631Z,2.63
2018-08-10T17:48:06.132Z,2.30
2018-08-10T17:50:34.252Z,2.40
2018-08-10T17:53:02.446Z,2.60
2018-08-10T17:55:31.062Z,2.27
2018-08-10T17:57:59.443Z,2.60
2018-08-10T18:00:28.152Z,2.63
2018-08-10T18:02:56.275Z,2.50
2018-08-10T18:05:24.532Z,2.60
2018-08-10T18:07:52.687Z,2.77
2018-08-10T18:10:20.828Z,2.63
2018-08-10T18:12:55.692Z,2.90
2018-08-10T18:15:23.800Z,2.63
2018-08-10T18:17:52.004Z,2.97
2018-08-10T18:20:21.483Z,3.00
2018-08-10T18:22:50.670Z,2.80
2018-08-10T18:25:19.933Z,3.07
2018-08-10T18:27:48.052Z,2.97
2018-08-10T18:30:18.249Z,7.23
2018-08-10T18:32:46.867Z,4.53
2018-08-10T18:35:14.984Z,4.40
2018-08-10T18:37:43.804Z,3.80
2018-08-10T18:40:13.164Z,3.40
2018-08-10T18:42:42.396Z,3.07
2018-08-10T18:45:11.695Z,3.17
2018-08-10T18:47:40.060Z,3.60
2018-08-10T18:50:09.048Z,3.57
2018-08-10T18:52:37.377Z,3.43
2018-08-10T18:55:05.714Z,3.50
2018-08-10T18:57:34.214Z,3.07
2018-08-10T19:00:02.519Z,3.37
2018-08-10T19:02:30.634Z,3.07
2018-08-10T19:04:58.711Z,3.57
2018-08-10T19:07:26.861Z,3.53
2018-08-10T19:09:54.995Z,3.43
2018-08-10T19:12:23.096Z,3.70
2018-08-10T19:14:51.224Z,3.93
2018-08-10T19:17:19.359Z,3.20
2018-08-10T19:19:47.943Z,3.60
2018-08-10T19:22:16.127Z,4.03
2018-08-10T19:24:47.395Z,4.10
2018-08-10T19:27:15.493Z,3.70
2018-08-10T19:29:43.593Z,4.00
2018-08-10T19:32:11.683Z,4.20
2018-08-10T19:34:39.799Z,3.83
2018-08-10T19:37:07.919Z,4.17
2018-08-10T19:39:36.203Z,4.03
2018-08-10T19:42:04.301Z,3.43
2018-08-10T19:44:32.419Z,3.90
2018-08-10T19:47:00.562Z,3.77
2018-08-10T19:49:28.683Z,3.40
2018-08-10T19:51:56.843Z,2.73
2018-08-10T19:54:24.960Z,2.40
2018-08-10T19:56:53.227Z,2.60
2018-08-10T19:59:21.464Z,1.90
2018-08-10T20:01:49.554Z,1.93
2018-08-10T20:04:17.647Z,1.97
2018-08-10T20:06:45.752Z,2.27
2018-08-10T20:09:13.855Z,2.10
2018-08-10T20:11:41.968Z,2.20
2018-08-10T20:14:10.067Z,2.13
2018-08-10T20:16:38.171Z,1.73
2018-08-10T20:19:06.380Z,1.57
2018-08-10T20:21:34.503Z,2.03
2018-08-10T20:24:05.796Z,1.73
2018-08-10T20:26:33.927Z,2.20
2018-08-10T20:29:02.030Z,1.97
2018-08-10T20:31:30.677Z,1.60
2018-08-10T20:33:58.779Z,1.70
2018-08-10T20:36:26.891Z,1.67
2018-08-10T20:38:55.140Z,1.67
2018-08-10T20:41:23.383Z,1.83
2018-08-10T20:43:51.509Z,1.37
2018-08-10T20:46:19.619Z,1.80
2018-08-10T20:48:47.875Z,1.63
2018-08-10T20:51:15.982Z,1.70
2018-08-10T20:53:44.087Z,2.00
2018-08-10T20:56:12.215Z,1.80
2018-08-10T20:58:41.736Z,1.43
2018-08-10T21:01:12.305Z,1.57
2018-08-10T21:03:40.415Z,1.70
2018-08-10T21:06:08.551Z,1.57
2018-08-10T21:08:36.656Z,1.80
2018-08-10T21:11:04.754Z,1.80
2018-08-10T21:13:32.910Z,1.67
2018-08-10T21:16:01.071Z,1.37
2018-08-10T21:18:29.218Z,1.80
2018-08-10T21:20:57.320Z,1.83
2018-08-10T21:23:25.415Z,1.63
2018-08-10T21:25:53.568Z,1.50
2018-08-10T21:28:21.659Z,1.90
2018-08-10T21:30:49.776Z,1.43
2018-08-10T21:33:17.892Z,1.60
2018-08-10T21:35:46.003Z,1.57
2018-08-10T21:38:14.104Z,1.40
2018-08-10T21:40:42.408Z,1.93
2018-08-10T21:43:10.554Z,1.30
2018-08-10T21:45:38.675Z,1.33
2018-08-10T21:48:06.854Z,1.60
2018-08-10T21:50:34.963Z,1.47
2018-08-10T21:53:03.163Z,1.50
2018-08-10T21:55:31.322Z,1.53
2018-08-10T21:57:59.424Z,1.30
2018-08-10T22:01:01.887Z,1.60
2018-08-10T22:03:29.967Z,1.53
2018-08-10T22:05:58.082Z,1.50
2018-08-10T22:08:26.208Z,1.50
2018-08-10T22:10:54.319Z,1.73
2018-08-10T22:13:27.995Z,1.90
2018-08-10T22:16:01.571Z,1.30
2018-08-10T22:18:35.291Z,1.80
2018-08-10T22:21:03.423Z,1.63
2018-08-10T22:23:31.537Z,1.13
2018-08-10T22:26:00.171Z,1.57
2018-08-10T22:28:28.456Z,1.60
2018-08-10T22:30:56.584Z,1.40
2018-08-10T22:33:24.723Z,1.90
2018-08-10T22:35:52.843Z,1.57
2018-08-10T22:38:20.952Z,1.30
2018-08-10T22:40:49.080Z,1.63
2018-08-10T22:43:17.207Z,1.53
2018-08-10T22:45:45.327Z,1.60
2018-08-10T22:48:13.427Z,1.60
2018-08-10T22:50:41.519Z,1.53
2018-08-10T22:53:09.686Z,1.40
2018-08-10T22:55:37.951Z,1.50
2018-08-10T22:58:06.060Z,1.60
2018-08-10T23:00:34.152Z,1.20
2018-08-10T23:03:02.289Z,1.60
2018-08-10T23:05:30.387Z,1.50
2018-08-10T23:07:58.503Z,1.80
2018-08-10T23:10:26.619Z,1.57
2018-08-10T23:12:54.744Z,1.60
2018-08-10T23:15:22.876Z,1.40
2018-08-10T23:17:50.994Z,1.50
2018-08-10T23:20:19.143Z,1.40
2018-08-10T23:22:47.208Z,1.40
2018-08-10T23:25:15.310Z,1.70
2018-08-10T23:27:44.330Z,1.20
2018-08-10T23:30:13.714Z,1.40
2018-08-10T23:32:42.099Z,1.40
2018-08-10T23:35:10.223Z,1.40
2018-08-10T23:37:38.607Z,1.30
2018-08-10T23:40:10.030Z,1.40
2018-08-10T23:42:38.430Z,1.40
2018-08-10T23:45:07.878Z,1.40
2018-08-10T23:47:35.995Z,1.37
2018-08-10T23:50:05.904Z,1.27
2018-08-10T23:52:34.032Z,1.40
2018-08-10T23:55:02.151Z,1.37
2018-08-10T23:57:30.275Z,1.37
2018-08-10T23:59:58.379Z,1.27
